createdAt,value
2022-12-18T00:00:31.801Z,26
2022-12-18T00:01:33.751Z,26
2022-12-18T00:02:36.152Z,26
2022-12-18T00:03:39.421Z,26
2022-12-18T00:04:42.913Z,26
2022-12-18T00:05:44.623Z,26
2022-12-18T00:06:48.520Z,26
2022-12-18T00:07:50.166Z,26
2022-12-18T00:08:51.948Z,26
2022-12-18T00:09:53.975Z,26
2022-12-18T00:11:00.031Z,26
2022-12-18T00:13:20.624Z,26
2022-12-18T00:14:22.445Z,25.9
2022-12-18T00:15:24.317Z,25.8
2022-12-18T00:16:26.184Z,25.9
2022-12-18T00:17:28.116Z,25.9
2022-12-18T00:18:29.970Z,25.9
2022-12-18T00:19:31.723Z,25.9
2022-12-18T00:20:33.518Z,25.9
2022-12-18T00:21:35.292Z,25.9
2022-12-18T00:22:37.044Z,25.9
2022-12-18T00:23:39.985Z,25.9
2022-12-18T00:24:43.451Z,25.9
2022-12-18T00:25:45.168Z,25.9
2022-12-18T00:26:46.862Z,25.9
2022-12-18T00:27:48.439Z,25.9
2022-12-18T00:28:50.412Z,25.9
2022-12-18T00:29:52.054Z,25.9
2022-12-18T00:30:53.678Z,25.9
2022-12-18T00:31:55.674Z,25.9
2022-12-18T00:32:57.574Z,25.9
2022-12-18T00:33:59.435Z,25.9
2022-12-18T00:35:01.417Z,25.9
2022-12-18T00:36:03.204Z,25.9
2022-12-18T00:37:04.915Z,25.9
2022-12-18T00:38:06.698Z,25.9
2022-12-18T00:39:08.546Z,25.9
2022-12-18T00:40:10.257Z,25.9
2022-12-18T00:41:11.941Z,25.9
2022-12-18T00:42:13.653Z,25.9
2022-12-18T00:43:15.399Z,25.8
2022-12-18T00:44:17.240Z,25.8
2022-12-18T00:45:18.887Z,25.8
2022-12-18T00:46:20.782Z,25.8
2022-12-18T00:47:22.652Z,25.8
2022-12-18T00:48:24.494Z,25.9
2022-12-18T00:49:26.390Z,25.9
2022-12-18T00:50:28.136Z,25.8
2022-12-18T00:51:29.733Z,25.8
2022-12-18T00:52:31.525Z,25.8
2022-12-18T00:53:33.220Z,25.8
2022-12-18T00:54:35.058Z,25.8
2022-12-18T00:55:36.781Z,25.8
2022-12-18T00:56:49.565Z,25.8
2022-12-18T00:57:51.793Z,25.8
2022-12-18T00:58:53.602Z,25.8
2022-12-18T00:59:55.351Z,25.8
2022-12-18T01:00:57.124Z,25.7
2022-12-18T01:01:59.318Z,25.7
2022-12-18T01:03:01.782Z,25.7
2022-12-18T01:04:03.726Z,25.7
2022-12-18T01:05:05.515Z,25.7
2022-12-18T01:06:07.435Z,25.7
2022-12-18T01:07:09.726Z,25.7
2022-12-18T01:08:11.681Z,25.8
2022-12-18T01:09:13.582Z,25.7
2022-12-18T01:10:15.607Z,25.7
2022-12-18T01:11:17.285Z,25.7
2022-12-18T01:12:19.074Z,25.7
2022-12-18T01:13:20.922Z,25.7
2022-12-18T01:14:22.536Z,25.7
2022-12-18T01:15:24.306Z,25.7
2022-12-18T01:16:26.211Z,25.7
2022-12-18T01:17:28.121Z,25.7
2022-12-18T01:18:29.863Z,25.7
2022-12-18T01:19:31.564Z,25.7
2022-12-18T01:20:33.369Z,25.7
2022-12-18T01:21:35.106Z,25.7
2022-12-18T01:22:36.968Z,25.6
2022-12-18T01:23:40.541Z,25.7
2022-12-18T01:24:43.833Z,25.7
2022-12-18T01:25:45.712Z,25.7
2022-12-18T01:26:47.376Z,25.7
2022-12-18T01:27:49.076Z,25.6
2022-12-18T01:28:50.732Z,25.6
2022-12-18T01:29:52.472Z,25.6
2022-12-18T01:30:54.212Z,25.6
2022-12-18T01:31:56.109Z,25.6
2022-12-18T01:32:58.230Z,25.6
2022-12-18T01:33:59.967Z,25.6
2022-12-18T01:35:01.716Z,25.6
2022-12-18T01:36:03.480Z,25.6
2022-12-18T01:37:05.370Z,25.6
2022-12-18T01:38:07.163Z,25.6
2022-12-18T01:39:08.780Z,25.6
2022-12-18T01:40:10.656Z,25.5
2022-12-18T01:41:12.403Z,25.5
2022-12-18T01:42:14.057Z,25.5
2022-12-18T01:43:15.805Z,25.5
2022-12-18T01:44:17.656Z,25.5
2022-12-18T01:45:19.781Z,25.5
2022-12-18T01:46:21.883Z,25.5
2022-12-18T01:47:23.918Z,25.5
2022-12-18T01:48:25.666Z,25.5
2022-12-18T01:49:27.416Z,25.5
2022-12-18T01:50:29.277Z,25.4
2022-12-18T01:51:31.151Z,25.4
2022-12-18T01:52:32.915Z,25.5
2022-12-18T01:53:34.660Z,25.4
2022-12-18T01:54:37.230Z,25.4
2022-12-18T01:55:38.906Z,25.5
2022-12-18T01:56:40.577Z,25.4
2022-12-18T01:57:42.423Z,25.4
2022-12-18T01:58:44.270Z,25.4
2022-12-18T01:59:46.014Z,25.4
2022-12-18T02:00:48.130Z,25.4
2022-12-18T02:01:51.043Z,25.4
2022-12-18T02:02:53.786Z,25.4
2022-12-18T02:03:56.193Z,25.4
2022-12-18T02:04:58.029Z,25.3
2022-12-18T02:05:59.783Z,25.3
2022-12-18T02:07:01.494Z,25.3
2022-12-18T02:08:03.383Z,25.3
2022-12-18T02:09:07.077Z,25.3
2022-12-18T02:10:09.021Z,25.3
2022-12-18T02:11:10.665Z,25.3
2022-12-18T02:12:12.328Z,25.3
2022-12-18T02:13:14.287Z,25.3
2022-12-18T02:14:16.431Z,25.3
2022-12-18T02:15:18.192Z,25.3
2022-12-18T02:16:20.212Z,25.3
2022-12-18T02:17:22.183Z,25.3
2022-12-18T02:18:23.930Z,25.2
2022-12-18T02:19:25.765Z,25.3
2022-12-18T02:20:27.394Z,25.2
2022-12-18T02:21:29.004Z,25.3
2022-12-18T02:22:30.806Z,25.2
2022-12-18T02:23:32.403Z,25.2
2022-12-18T02:24:34.208Z,25.2
2022-12-18T02:25:36.007Z,25.2
2022-12-18T02:26:37.809Z,25.2
2022-12-18T02:27:39.647Z,25.2
2022-12-18T02:28:41.727Z,25.2
2022-12-18T02:29:43.815Z,25.2
2022-12-18T02:30:45.665Z,25.2
2022-12-18T02:31:47.628Z,25.2
2022-12-18T02:32:49.520Z,25.2
2022-12-18T02:33:53.992Z,25.2
2022-12-18T02:34:55.876Z,25.2
2022-12-18T02:35:57.620Z,25.2
2022-12-18T02:36:59.382Z,25.2
2022-12-18T02:38:01.220Z,25.2
2022-12-18T02:39:02.875Z,25.2
2022-12-18T02:40:04.717Z,25.1
2022-12-18T02:41:06.562Z,25.1
2022-12-18T02:42:08.321Z,25.1
2022-12-18T02:43:10.106Z,25.1
2022-12-18T02:44:12.234Z,25.1
2022-12-18T02:45:14.286Z,25.1
2022-12-18T02:46:16.623Z,25.1
2022-12-18T02:47:18.687Z,25.1
2022-12-18T02:48:20.347Z,25.1
2022-12-18T02:49:22.078Z,25.1
2022-12-18T02:50:23.733Z,25
2022-12-18T02:51:25.471Z,25.1
2022-12-18T02:52:27.925Z,25.1
2022-12-18T02:53:30.819Z,25.1
2022-12-18T02:54:32.457Z,25.1
2022-12-18T02:55:34.218Z,25.1
2022-12-18T02:56:35.958Z,25.1
2022-12-18T02:57:37.616Z,25
2022-12-18T02:58:39.345Z,25
2022-12-18T02:59:41.245Z,25
2022-12-18T03:00:43.361Z,25
2022-12-18T03:01:45.458Z,25.1
2022-12-18T03:02:48.057Z,25
2022-12-18T03:03:50.232Z,25
2022-12-18T03:04:51.882Z,25
2022-12-18T03:05:53.527Z,25
2022-12-18T03:06:55.390Z,25
2022-12-18T03:07:57.374Z,24.9
2022-12-18T03:08:59.054Z,24.9
2022-12-18T03:10:00.722Z,24.9
2022-12-18T03:11:02.370Z,24.9
2022-12-18T03:12:04.125Z,24.9
2022-12-18T03:13:06.374Z,24.9
2022-12-18T03:14:09.444Z,24.9
2022-12-18T03:15:18.122Z,24.9
2022-12-18T03:16:20.551Z,24.9
2022-12-18T03:17:22.485Z,24.8
2022-12-18T03:18:24.226Z,24.8
2022-12-18T03:19:25.978Z,24.8
2022-12-18T03:20:27.726Z,24.8
2022-12-18T03:21:29.465Z,24.8
2022-12-18T03:22:31.212Z,24.8
2022-12-18T03:23:32.973Z,24.9
2022-12-18T03:24:34.656Z,24.8
2022-12-18T03:25:36.432Z,24.8
2022-12-18T03:26:38.413Z,24.8
2022-12-18T03:27:40.565Z,24.8
2022-12-18T03:28:42.300Z,24.8
2022-12-18T03:29:44.065Z,24.8
2022-12-18T03:30:46.175Z,24.8
2022-12-18T03:31:53.802Z,24.8
2022-12-18T03:33:00.607Z,24.7
2022-12-18T03:34:02.401Z,24.8
2022-12-18T03:35:04.173Z,24.7
2022-12-18T03:36:06.130Z,24.8
2022-12-18T03:37:07.824Z,24.7
2022-12-18T03:38:09.767Z,24.8
2022-12-18T03:39:11.409Z,24.8
2022-12-18T03:40:13.026Z,24.7
2022-12-18T03:41:14.834Z,24.8
2022-12-18T03:42:16.603Z,24.7
2022-12-18T03:43:18.233Z,24.7
2022-12-18T03:44:20.008Z,24.7
2022-12-18T03:45:21.749Z,24.7
2022-12-18T03:46:24.512Z,24.7
2022-12-18T03:47:27.195Z,24.7
2022-12-18T03:48:29.146Z,24.7
2022-12-18T03:49:30.749Z,24.7
2022-12-18T03:50:32.392Z,24.7
2022-12-18T03:51:34.074Z,24.2
2022-12-18T03:52:35.923Z,24.4
2022-12-18T03:53:38.308Z,24.8
2022-12-18T03:54:41.167Z,24.8
2022-12-18T03:55:42.938Z,24.9
2022-12-18T03:56:44.668Z,24.9
2022-12-18T03:57:46.517Z,24.9
2022-12-18T03:58:48.776Z,25
2022-12-18T03:59:50.472Z,25
2022-12-18T04:00:52.197Z,24.9
2022-12-18T04:01:54.428Z,24.9
2022-12-18T04:02:56.686Z,24.8
2022-12-18T04:03:58.759Z,24.8
2022-12-18T04:05:03.657Z,24.7
2022-12-18T04:06:05.386Z,24.7
2022-12-18T04:07:07.179Z,24.7
2022-12-18T04:08:08.909Z,24.6
2022-12-18T04:09:10.751Z,24.6
2022-12-18T04:10:12.495Z,24.6
2022-12-18T04:11:14.243Z,24.6
2022-12-18T04:12:15.956Z,24.5
2022-12-18T04:13:17.631Z,24.5
2022-12-18T04:14:19.381Z,24.4
2022-12-18T04:15:21.024Z,24.4
2022-12-18T04:16:22.677Z,24.4
2022-12-18T04:17:24.639Z,24.4
2022-12-18T04:18:27.511Z,24.3
2022-12-18T04:19:29.964Z,24.3
2022-12-18T04:20:31.728Z,24.2
2022-12-18T04:21:33.569Z,24.3
2022-12-18T04:22:35.319Z,24.3
2022-12-18T04:23:37.620Z,24.3
2022-12-18T04:24:40.661Z,24.2
2022-12-18T04:25:42.400Z,24.2
2022-12-18T04:26:44.041Z,24.1
2022-12-18T04:27:45.795Z,24.1
2022-12-18T04:28:47.483Z,24.1
2022-12-18T04:29:49.294Z,24.1
2022-12-18T04:30:51.359Z,24.1
2022-12-18T04:31:53.502Z,24.1
2022-12-18T04:32:55.473Z,24.1
2022-12-18T04:33:57.345Z,24
2022-12-18T04:34:59.260Z,24
2022-12-18T04:36:01.011Z,23.9
2022-12-18T04:37:02.856Z,24
2022-12-18T04:38:04.704Z,24
2022-12-18T04:39:07.934Z,23.9
2022-12-18T04:40:09.837Z,23.9
2022-12-18T04:41:11.692Z,23.9
2022-12-18T04:42:13.412Z,24
2022-12-18T04:43:15.316Z,23.9
2022-12-18T04:44:17.743Z,23.9
2022-12-18T04:45:19.495Z,23.9
2022-12-18T04:46:21.357Z,23.9
2022-12-18T04:47:23.295Z,23.9
2022-12-18T04:48:25.279Z,23.8
2022-12-18T04:49:27.298Z,23.9
2022-12-18T04:50:29.164Z,23.8
2022-12-18T04:51:31.007Z,23.9
2022-12-18T04:52:32.799Z,23.8
2022-12-18T04:53:34.439Z,23.8
2022-12-18T04:54:36.240Z,23.8
2022-12-18T04:55:37.994Z,23.8
2022-12-18T04:56:41.077Z,23.8
2022-12-18T04:57:42.922Z,23.8
2022-12-18T04:58:44.673Z,23.8
2022-12-18T04:59:46.460Z,23.8
2022-12-18T05:00:48.160Z,23.8
2022-12-18T05:01:50.153Z,23.8
2022-12-18T05:02:52.796Z,23.7
2022-12-18T05:03:55.722Z,23.7
2022-12-18T05:04:57.656Z,23.7
2022-12-18T05:05:59.565Z,23.7
2022-12-18T05:07:01.621Z,23.6
2022-12-18T05:08:03.680Z,23.7
2022-12-18T05:09:06.210Z,23.7
2022-12-18T05:10:07.892Z,23.7
2022-12-18T05:11:10.667Z,23.7
2022-12-18T05:12:12.511Z,23.7
2022-12-18T05:13:14.202Z,23.7
2022-12-18T05:14:15.998Z,23.7
2022-12-18T05:15:17.645Z,23.7
2022-12-18T05:16:19.531Z,23.7
2022-12-18T05:17:21.556Z,23.7
2022-12-18T05:18:23.196Z,23.7
2022-12-18T05:19:25.139Z,23.6
2022-12-18T05:20:27.827Z,23.6
2022-12-18T05:21:31.074Z,23.6
2022-12-18T05:22:32.759Z,23.6
2022-12-18T05:23:34.602Z,23.6
2022-12-18T05:24:36.444Z,23.6
2022-12-18T05:25:38.307Z,23.5
2022-12-18T05:26:40.048Z,23.5
2022-12-18T05:27:43.327Z,23.5
2022-12-18T05:28:45.080Z,23.5
2022-12-18T05:29:46.870Z,23.5
2022-12-18T05:30:48.514Z,23.5
2022-12-18T05:31:50.575Z,23.5
2022-12-18T05:32:53.704Z,23.5
2022-12-18T05:33:56.529Z,23.5
2022-12-18T05:34:58.555Z,23.5
2022-12-18T05:36:00.393Z,23.5
2022-12-18T05:37:02.443Z,23.4
2022-12-18T05:38:04.294Z,23.5
2022-12-18T05:39:06.234Z,23.5
2022-12-18T05:40:08.205Z,23.5
2022-12-18T05:41:09.938Z,23.4
2022-12-18T05:42:11.677Z,23.5
2022-12-18T05:43:21.500Z,23.5
2022-12-18T05:44:23.654Z,23.4
2022-12-18T05:45:25.297Z,23.4
2022-12-18T05:46:27.334Z,23.4
2022-12-18T05:47:29.434Z,23.3
2022-12-18T05:48:31.239Z,23.3
2022-12-18T05:49:33.014Z,23.3
2022-12-18T05:50:35.113Z,23.4
2022-12-18T05:51:36.888Z,23.4
2022-12-18T05:52:38.690Z,23.3
2022-12-18T05:53:41.327Z,23.3
2022-12-18T05:54:44.336Z,23.3
2022-12-18T05:55:46.082Z,23.3
2022-12-18T05:56:49.276Z,23.3
2022-12-18T05:57:51.092Z,23.3
2022-12-18T05:58:55.844Z,23.2
2022-12-18T05:59:57.824Z,23.3
2022-12-18T06:00:59.529Z,23.2
2022-12-18T06:02:01.520Z,23.3
2022-12-18T06:03:03.961Z,23.2
2022-12-18T06:04:06.857Z,23.2
2022-12-18T06:05:08.774Z,23.1
2022-12-18T06:06:10.738Z,23.2
2022-12-18T06:07:12.579Z,23.2
2022-12-18T06:08:14.528Z,23.1
2022-12-18T06:09:16.382Z,23.1
2022-12-18T06:10:18.121Z,23.2
2022-12-18T06:11:19.841Z,23.1
2022-12-18T06:12:21.667Z,23.2
2022-12-18T06:13:23.439Z,23.1
2022-12-18T06:14:25.211Z,23.2
2022-12-18T06:15:26.914Z,23.1
2022-12-18T06:16:28.738Z,23.1
2022-12-18T06:17:31.025Z,23.1
2022-12-18T06:18:32.712Z,23.1
2022-12-18T06:19:34.570Z,23
2022-12-18T06:20:36.297Z,23
2022-12-18T06:21:38.387Z,23
2022-12-18T06:22:40.216Z,23
2022-12-18T06:23:42.935Z,22.9
2022-12-18T06:24:45.261Z,23
2022-12-18T06:25:47.485Z,23
2022-12-18T06:26:49.258Z,23
2022-12-18T06:27:51.113Z,23
2022-12-18T06:28:52.956Z,23
2022-12-18T06:29:54.824Z,23
2022-12-18T06:30:56.774Z,23
2022-12-18T06:32:01.458Z,23
2022-12-18T06:33:03.479Z,23
2022-12-18T06:34:05.120Z,22.9
2022-12-18T06:35:09.999Z,22.9
2022-12-18T06:36:11.748Z,23
2022-12-18T06:37:13.725Z,22.9
2022-12-18T06:38:15.597Z,22.9
2022-12-18T06:39:17.506Z,22.9
2022-12-18T06:40:19.293Z,22.9
2022-12-18T06:41:21.199Z,22.8
2022-12-18T06:42:22.842Z,22.8
2022-12-18T06:43:24.491Z,22.8
2022-12-18T06:44:28.938Z,22.8
2022-12-18T06:45:30.687Z,22.8
2022-12-18T06:46:32.612Z,22.8
2022-12-18T06:47:34.347Z,22.8
2022-12-18T06:48:36.100Z,22.8
2022-12-18T06:49:37.933Z,22.8
2022-12-18T06:50:39.639Z,22.8
2022-12-18T06:51:41.439Z,22.8
2022-12-18T06:52:43.622Z,22.8
2022-12-18T06:53:45.455Z,22.8
2022-12-18T06:54:53.238Z,22.8
2022-12-18T06:55:54.991Z,22.7
2022-12-18T06:56:56.780Z,22.7
2022-12-18T06:57:58.742Z,22.8
2022-12-18T06:59:00.502Z,22.7
2022-12-18T07:00:02.392Z,22.7
2022-12-18T07:01:04.415Z,22.7
2022-12-18T07:02:06.557Z,22.7
2022-12-18T07:03:08.879Z,22.7
2022-12-18T07:04:10.921Z,22.7
2022-12-18T07:05:12.639Z,22.7
2022-12-18T07:06:14.507Z,22.7
2022-12-18T07:07:16.232Z,22.6
2022-12-18T07:08:18.297Z,22.7
2022-12-18T07:09:20.212Z,22.6
2022-12-18T07:10:22.025Z,22.6
2022-12-18T07:11:24.075Z,22.6
2022-12-18T07:12:25.762Z,22.6
2022-12-18T07:13:27.436Z,22.6
2022-12-18T07:14:30.145Z,22.6
2022-12-18T07:15:31.886Z,22.6
2022-12-18T07:16:33.869Z,22.6
2022-12-18T07:17:35.962Z,22.6
2022-12-18T07:18:37.738Z,22.5
2022-12-18T07:19:39.384Z,22.6
2022-12-18T07:20:41.127Z,22.5
2022-12-18T07:21:42.850Z,22.5
2022-12-18T07:22:44.618Z,22.5
2022-12-18T07:23:46.559Z,22.5
2022-12-18T07:24:48.530Z,22.5
2022-12-18T07:25:50.884Z,22.5
2022-12-18T07:26:53.357Z,22.4
2022-12-18T07:27:55.309Z,22.5
2022-12-18T07:28:56.995Z,22.5
2022-12-18T07:29:58.700Z,22.5
2022-12-18T07:31:00.556Z,22.4
2022-12-18T07:32:02.625Z,22.5
2022-12-18T07:33:04.654Z,22.4
2022-12-18T07:34:06.402Z,22.4
2022-12-18T07:35:08.023Z,22.4
2022-12-18T07:36:09.803Z,22.3
2022-12-18T07:37:11.542Z,22.4
2022-12-18T07:38:13.294Z,22.4
2022-12-18T07:39:15.278Z,22.3
2022-12-18T07:40:17.196Z,22.3
2022-12-18T07:41:18.851Z,22.3
2022-12-18T07:42:21.624Z,22.4
2022-12-18T07:43:27.628Z,22.3
2022-12-18T07:44:29.409Z,22.3
2022-12-18T07:45:31.157Z,22.3
2022-12-18T07:46:33.059Z,22.3
2022-12-18T07:47:34.833Z,22.3
2022-12-18T07:48:36.655Z,22.2
2022-12-18T07:49:38.509Z,22.3
2022-12-18T07:50:40.304Z,22.3
2022-12-18T07:51:42.062Z,22.3
2022-12-18T07:52:43.797Z,22.2
2022-12-18T07:53:45.451Z,22.2
2022-12-18T07:54:47.420Z,22.3
2022-12-18T07:56:28.490Z,22.3
2022-12-18T07:58:01.770Z,22.2
2022-12-18T07:59:03.604Z,22.1
2022-12-18T08:00:05.221Z,22.1
2022-12-18T08:01:07.157Z,22.1
2022-12-18T08:02:09.761Z,22.1
2022-12-18T08:03:13.921Z,22.1
2022-12-18T08:04:15.934Z,22.1
2022-12-18T08:05:17.680Z,22.1
2022-12-18T08:06:19.422Z,22.1
2022-12-18T08:07:26.339Z,22.1
2022-12-18T08:08:27.939Z,22.1
2022-12-18T08:09:29.793Z,22.1
2022-12-18T08:10:31.758Z,22.1
2022-12-18T08:11:36.422Z,22.1
2022-12-18T08:12:38.250Z,22.1
2022-12-18T08:13:40.665Z,22.1
2022-12-18T08:14:43.746Z,22.1
2022-12-18T08:15:45.503Z,22.1
2022-12-18T08:16:47.355Z,22
2022-12-18T08:17:49.296Z,22.1
2022-12-18T08:18:51.090Z,22.1
2022-12-18T08:19:52.891Z,22
2022-12-18T08:20:54.508Z,22
2022-12-18T08:21:56.284Z,22
2022-12-18T08:22:58.337Z,22
2022-12-18T08:24:00.002Z,22
2022-12-18T08:25:01.785Z,22
2022-12-18T08:26:03.714Z,22
2022-12-18T08:27:35.550Z,22
2022-12-18T08:28:37.489Z,22
2022-12-18T08:29:39.157Z,21.9
2022-12-18T08:30:41.067Z,21.9
2022-12-18T08:31:43.724Z,21.9
2022-12-18T08:32:45.617Z,21.9
2022-12-18T08:33:47.302Z,21.9
2022-12-18T08:34:48.950Z,21.9
2022-12-18T08:35:50.617Z,21.9
2022-12-18T08:36:52.382Z,21.9
2022-12-18T08:37:54.148Z,21.9
2022-12-18T08:38:56.001Z,21.9
2022-12-18T08:39:57.583Z,22
2022-12-18T08:40:59.280Z,21.9
2022-12-18T08:42:09.997Z,22
2022-12-18T08:43:12.411Z,21.9
2022-12-18T08:44:14.358Z,21.9
2022-12-18T08:45:16.625Z,21.9
2022-12-18T08:46:19.289Z,21.9
2022-12-18T08:47:21.442Z,21.9
2022-12-18T08:48:23.084Z,21.8
2022-12-18T08:49:24.705Z,21.9
2022-12-18T08:50:26.690Z,21.8
2022-12-18T08:51:28.429Z,21.8
2022-12-18T08:52:30.142Z,21.9
2022-12-18T08:53:36.058Z,21.8
2022-12-18T08:54:38.280Z,21.9
2022-12-18T08:55:39.899Z,21.8
2022-12-18T08:56:41.698Z,21.8
2022-12-18T08:57:44.363Z,21.8
2022-12-18T08:58:46.713Z,21.8
2022-12-18T08:59:48.667Z,21.7
2022-12-18T09:00:50.386Z,21.8
2022-12-18T09:01:52.455Z,21.8
2022-12-18T09:02:55.192Z,21.8
2022-12-18T09:03:57.298Z,21.8
2022-12-18T09:04:59.140Z,21.8
2022-12-18T09:06:00.897Z,21.8
2022-12-18T09:07:02.683Z,21.8
2022-12-18T09:08:04.329Z,21.7
2022-12-18T09:09:06.033Z,21.7
2022-12-18T09:10:07.885Z,21.7
2022-12-18T09:11:09.830Z,21.7
2022-12-18T09:12:11.577Z,21.7
2022-12-18T09:13:13.759Z,21.7
2022-12-18T09:14:15.715Z,21.7
2022-12-18T09:15:17.596Z,21.7
2022-12-18T09:16:19.412Z,21.7
2022-12-18T09:17:21.611Z,21.7
2022-12-18T09:18:23.595Z,21.7
2022-12-18T09:19:25.423Z,21.7
2022-12-18T09:20:27.200Z,21.7
2022-12-18T09:21:28.923Z,21.6
2022-12-18T09:22:30.764Z,21.6
2022-12-18T09:23:32.417Z,21.6
2022-12-18T09:24:34.213Z,21.6
2022-12-18T09:25:35.885Z,21.6
2022-12-18T09:26:37.590Z,21.6
2022-12-18T09:27:41.472Z,21.7
2022-12-18T09:28:44.148Z,21.6
2022-12-18T09:29:46.208Z,21.6
2022-12-18T09:30:48.099Z,21.6
2022-12-18T09:31:51.239Z,21.5
2022-12-18T09:32:52.930Z,21.6
2022-12-18T09:33:54.626Z,21.6
2022-12-18T09:34:56.240Z,21.5
2022-12-18T09:35:58.230Z,21.5
2022-12-18T09:37:00.128Z,21.5
2022-12-18T09:38:01.836Z,21.6
2022-12-18T09:39:09.038Z,21.5
2022-12-18T09:40:10.956Z,21.5
2022-12-18T09:41:12.775Z,21.6
2022-12-18T09:42:15.475Z,21.5
2022-12-18T09:43:17.217Z,21.5
2022-12-18T09:44:19.316Z,21.5
2022-12-18T09:45:21.428Z,21.5
2022-12-18T09:46:23.538Z,21.4
2022-12-18T09:47:25.551Z,21.5
2022-12-18T09:48:27.389Z,21.4
2022-12-18T09:49:29.082Z,21.4
2022-12-18T09:50:30.832Z,21.4
2022-12-18T09:51:32.538Z,21.4
2022-12-18T09:52:34.388Z,21.4
2022-12-18T09:53:36.231Z,21.4
2022-12-18T09:54:37.956Z,21.4
2022-12-18T09:55:39.717Z,21.4
2022-12-18T09:56:41.571Z,21.3
2022-12-18T09:57:43.426Z,21.4
2022-12-18T09:58:45.385Z,21.3
2022-12-18T09:59:47.555Z,21.3
2022-12-18T10:00:49.594Z,21.3
2022-12-18T10:01:51.707Z,21.3
2022-12-18T10:02:54.512Z,21.3
2022-12-18T10:03:56.807Z,21.3
2022-12-18T10:04:58.935Z,21.3
2022-12-18T10:06:00.681Z,21.3
2022-12-18T10:07:09.524Z,21.2
2022-12-18T10:08:11.445Z,21.2
2022-12-18T10:09:13.089Z,21.3
2022-12-18T10:10:14.945Z,21.3
2022-12-18T10:11:16.643Z,21.3
2022-12-18T10:12:18.435Z,21.2
2022-12-18T10:13:24.062Z,21.3
2022-12-18T10:14:27.129Z,21.3
2022-12-18T10:15:29.270Z,21.2
2022-12-18T10:16:31.362Z,21.3
2022-12-18T10:17:33.332Z,21.3
2022-12-18T10:18:35.277Z,21.2
2022-12-18T10:19:37.128Z,21.2
2022-12-18T10:20:38.976Z,21.2
2022-12-18T10:21:40.715Z,21.2
2022-12-18T10:22:42.406Z,21.2
2022-12-18T10:23:48.690Z,21.2
2022-12-18T10:24:50.574Z,21.2
2022-12-18T10:25:52.227Z,21.2
2022-12-18T10:26:53.975Z,21.1
2022-12-18T10:27:55.707Z,21.2
2022-12-18T10:29:05.446Z,21.1
2022-12-18T10:30:07.807Z,21.1
2022-12-18T10:31:10.017Z,21.1
2022-12-18T10:32:12.060Z,21.1
2022-12-18T10:33:13.976Z,21.1
2022-12-18T10:34:15.717Z,21.1
2022-12-18T10:35:17.415Z,21.1
2022-12-18T10:36:19.298Z,21.1
2022-12-18T10:37:20.956Z,21.1
2022-12-18T10:38:23.021Z,21.1
2022-12-18T10:39:24.731Z,21.1
2022-12-18T10:40:26.514Z,21
2022-12-18T10:41:29.766Z,21.1
2022-12-18T10:42:31.439Z,21.1
2022-12-18T10:43:33.205Z,21
2022-12-18T10:44:35.007Z,21.1
2022-12-18T10:45:36.789Z,21
2022-12-18T10:46:38.908Z,21
2022-12-18T10:47:41.201Z,21
2022-12-18T10:48:44.147Z,21
2022-12-18T10:49:46.423Z,20.9
2022-12-18T10:51:12.562Z,21
2022-12-18T10:52:15.543Z,20.9
2022-12-18T10:53:17.249Z,20.9
2022-12-18T10:54:18.978Z,20.9
2022-12-18T10:55:23.718Z,21
2022-12-18T10:56:26.827Z,21
2022-12-18T10:57:28.518Z,20.9
2022-12-18T10:58:30.178Z,21
2022-12-18T10:59:32.073Z,21
2022-12-18T11:00:33.771Z,21
2022-12-18T11:01:35.647Z,20.9
2022-12-18T11:02:38.490Z,20.9
2022-12-18T11:03:41.337Z,20.9
2022-12-18T11:04:46.534Z,20.9
2022-12-18T11:05:48.287Z,20.8
2022-12-18T11:06:49.902Z,20.9
2022-12-18T11:07:51.699Z,20.8
2022-12-18T11:08:53.481Z,20.8
2022-12-18T11:09:55.249Z,20.9
2022-12-18T11:10:57.029Z,20.9
2022-12-18T11:11:58.775Z,20.8
2022-12-18T11:13:02.006Z,20.8
2022-12-18T11:14:06.976Z,20.8
2022-12-18T11:15:08.701Z,20.8
2022-12-18T11:16:13.462Z,20.8
2022-12-18T11:17:30.655Z,20.9
2022-12-18T11:18:32.722Z,20.8
2022-12-18T11:19:34.659Z,20.8
2022-12-18T11:20:37.744Z,20.7
2022-12-18T11:21:41.174Z,20.7
2022-12-18T11:22:42.816Z,20.8
2022-12-18T11:23:44.592Z,20.7
2022-12-18T11:25:31.175Z,20.8
2022-12-18T11:26:37.660Z,20.7
2022-12-18T11:27:39.421Z,20.7
2022-12-18T11:28:42.001Z,20.7
2022-12-18T11:29:47.130Z,20.7
2022-12-18T11:30:48.818Z,20.7
2022-12-18T11:31:50.569Z,20.6
2022-12-18T11:32:52.440Z,20.7
2022-12-18T11:34:29.408Z,20.6
2022-12-18T11:35:38.154Z,20.6
2022-12-18T11:36:40.153Z,20.6
2022-12-18T11:37:41.815Z,20.6
2022-12-18T11:38:44.543Z,20.6
2022-12-18T11:39:46.581Z,20.6
2022-12-18T11:40:48.343Z,20.7
2022-12-18T11:41:50.020Z,20.6
2022-12-18T11:42:51.820Z,20.6
2022-12-18T11:43:53.874Z,20.6
2022-12-18T11:44:55.615Z,20.6
2022-12-18T11:45:57.470Z,20.7
2022-12-18T11:46:59.462Z,20.7
2022-12-18T11:48:01.384Z,20.7
2022-12-18T11:49:03.231Z,20.7
2022-12-18T11:50:05.035Z,20.7
2022-12-18T11:51:06.924Z,20.6
2022-12-18T11:52:08.928Z,20.6
2022-12-18T11:53:10.721Z,20.6
2022-12-18T11:54:12.375Z,20.4
2022-12-18T11:55:13.994Z,20.5
2022-12-18T11:56:15.733Z,20.7
2022-12-18T11:57:17.611Z,20.8
2022-12-18T11:58:19.250Z,20.8
2022-12-18T11:59:21.060Z,20.8
2022-12-18T12:00:22.748Z,20.9
2022-12-18T12:01:24.626Z,20.9
2022-12-18T12:02:26.967Z,21
2022-12-18T12:03:29.126Z,20.9
2022-12-18T12:04:34.333Z,20.9
2022-12-18T12:05:36.522Z,20.9
2022-12-18T12:06:38.472Z,20.9
2022-12-18T12:07:40.511Z,20.8
2022-12-18T12:08:42.227Z,20.8
2022-12-18T12:09:44.005Z,20.8
2022-12-18T12:10:45.757Z,20.8
2022-12-18T12:11:47.510Z,20.8
2022-12-18T12:12:49.762Z,20.7
2022-12-18T12:13:51.599Z,20.7
2022-12-18T12:14:53.266Z,20.7
2022-12-18T12:15:55.557Z,20.6
2022-12-18T12:16:57.466Z,20.6
2022-12-18T12:17:59.327Z,20.6
2022-12-18T12:19:01.086Z,20.5
2022-12-18T12:20:03.030Z,20.5
2022-12-18T12:21:04.889Z,20.5
2022-12-18T12:22:06.695Z,20.5
2022-12-18T12:23:08.778Z,20.5
2022-12-18T12:24:10.523Z,20.5
2022-12-18T12:25:12.137Z,20.5
2022-12-18T12:26:13.919Z,20.5
2022-12-18T12:27:17.429Z,20.5
2022-12-18T12:28:19.161Z,20.6
2022-12-18T12:29:23.049Z,20.5
2022-12-18T12:30:24.855Z,20.5
2022-12-18T12:31:26.652Z,20.4
2022-12-18T12:32:28.566Z,20.3
2022-12-18T12:33:30.406Z,20.4
2022-12-18T12:34:32.182Z,20.4
2022-12-18T12:35:39.896Z,20.4
2022-12-18T12:36:41.972Z,20.4
2022-12-18T12:37:43.746Z,20.3
2022-12-18T12:38:52.217Z,20.3
2022-12-18T12:39:54.454Z,20.3
2022-12-18T12:41:03.741Z,20.3
2022-12-18T12:42:05.877Z,20.4
2022-12-18T12:43:07.577Z,20.4
2022-12-18T12:44:09.325Z,20.4
2022-12-18T12:45:11.806Z,20.3
2022-12-18T12:46:14.197Z,20.3
2022-12-18T12:47:17.130Z,20.3
2022-12-18T12:48:19.598Z,20.3
2022-12-18T12:49:23.064Z,20.3
2022-12-18T12:50:25.139Z,20.3
2022-12-18T12:51:28.025Z,20.2
2022-12-18T12:52:30.486Z,20.2
2022-12-18T12:53:32.851Z,20.2
2022-12-18T12:54:35.487Z,20.2
2022-12-18T12:55:37.381Z,20.3
2022-12-18T12:56:39.418Z,20.2
2022-12-18T12:57:41.371Z,20.3
2022-12-18T12:58:44.039Z,20.2
2022-12-18T12:59:45.988Z,20.2
2022-12-18T13:00:48.686Z,20.2
2022-12-18T13:01:51.474Z,20.2
2022-12-18T13:02:53.593Z,20.2
2022-12-18T13:03:55.947Z,20.2
2022-12-18T13:04:58.624Z,20.2
2022-12-18T13:06:00.596Z,20.3
2022-12-18T13:07:05.403Z,20.2
2022-12-18T13:08:08.903Z,20.2
2022-12-18T13:09:10.826Z,20.3
2022-12-18T13:10:17.723Z,20.2
2022-12-18T13:14:51.096Z,19.9
2022-12-18T13:15:55.155Z,20
2022-12-18T13:16:57.788Z,19.9
2022-12-18T13:17:59.742Z,20
2022-12-18T13:19:01.892Z,19.9
2022-12-18T13:20:03.617Z,20
2022-12-18T13:21:05.788Z,20.1
2022-12-18T13:22:08.823Z,20.1
2022-12-18T13:23:11.669Z,20.1
2022-12-18T13:24:13.608Z,20.1
2022-12-18T13:25:16.362Z,20
2022-12-18T13:26:28.253Z,20.1
2022-12-18T13:27:31.298Z,20
2022-12-18T13:28:33.194Z,20.1
2022-12-18T13:29:35.130Z,20.1
2022-12-18T13:30:37.251Z,20.1
2022-12-18T13:31:38.984Z,20.2
2022-12-18T13:32:40.792Z,20.1
2022-12-18T13:34:25.468Z,20.2
2022-12-18T13:35:31.187Z,20.1
2022-12-18T13:36:33.046Z,20
2022-12-18T13:37:35.169Z,20.1
2022-12-18T13:38:38.301Z,20.1
2022-12-18T13:39:40.430Z,20.1
2022-12-18T13:40:45.435Z,20.1
2022-12-18T13:41:48.225Z,20.1
2022-12-18T13:42:49.971Z,20.1
2022-12-18T13:43:52.117Z,20.1
2022-12-18T13:44:54.280Z,20.1
2022-12-18T13:45:56.649Z,20.1
2022-12-18T13:46:58.704Z,20.1
2022-12-18T13:48:00.459Z,20
2022-12-18T13:49:02.365Z,20.1
2022-12-18T13:50:04.428Z,20.1
2022-12-18T13:51:07.531Z,20.1
2022-12-18T13:52:11.021Z,20.1
2022-12-18T13:53:12.868Z,20.1
2022-12-18T13:54:15.049Z,20
2022-12-18T13:55:16.772Z,20
2022-12-18T13:56:21.607Z,20
2022-12-18T13:57:25.197Z,20.1
2022-12-18T13:58:27.445Z,20.1
2022-12-18T13:59:29.817Z,20.1
2022-12-18T14:00:31.665Z,20
2022-12-18T14:01:33.965Z,20.1
2022-12-18T14:02:36.970Z,20